Time;durP1;ratioP1;P1;durP2;ratioP2;P2;SDS_P1;SDS_P2;PMS_P1;PMS_P2;Temp;Humidity;BMP_temperature;BMP_pressure;BME280_temperature;BME280_humidity;BME280_pressure;Samples;Min_cycle;Max_cycle;Signal;HPM_P1;HPM_P2
2022/04/18 00:01:28;;;;;;;;;3.50;2.00;;;;;16.96;30.44;101536.47;5003547;28;45274;-58
2022/04/18 00:03:55;;;;;;;;;2.00;2.00;;;;;16.96;30.39;101532.00;5002658;28;46167;-58
2022/04/18 00:06:21;;;;;;;;;4.00;3.00;;;;;16.97;30.57;101528.34;5003256;28;45259;-58
2022/04/18 00:08:46;;;;;;;;;1.75;1.75;;;;;16.95;30.46;101521.47;5003258;28;45373;-58
2022/04/18 00:11:12;;;;;;;;;0.00;0.00;;;;;16.95;30.53;101521.47;5003154;28;45472;-58
2022/04/18 00:13:38;;;;;;;;;2.00;2.00;;;;;16.93;30.53;101521.56;4985498;28;46580;-58
2022/04/18 00:16:04;;;;;;;;;3.00;1.25;;;;;16.93;30.27;101507.44;5003021;28;45361;-58
2022/04/18 00:18:29;;;;;;;;;2.00;2.00;;;;;16.92;30.44;101519.03;4993900;28;45333;-59
2022/04/18 00:20:55;;;;;;;;;1.75;1.00;;;;;16.92;30.56;101511.91;5003457;28;45388;-59
2022/04/18 00:23:20;;;;;;;;;1.75;1.25;;;;;16.91;30.55;101514.69;5002889;28;46155;-58
2022/04/18 00:25:45;;;;;;;;;1.00;1.00;;;;;16.90;30.36;101499.66;5003165;28;45337;-58
2022/04/18 00:28:12;;;;;;;;;1.00;1.00;;;;;16.88;30.55;101502.44;5003330;28;45402;-58
2022/04/18 00:30:38;;;;;;;;;1.00;1.00;;;;;16.85;30.44;101500.00;5002864;28;45379;-58
2022/04/18 00:33:04;;;;;;;;;1.50;1.50;;;;;16.84;30.72;101498.31;5003049;28;45167;-58
2022/04/18 00:35:29;;;;;;;;;4.00;2.00;;;;;16.82;30.78;101504.69;4985284;28;45264;-58
2022/04/18 00:37:55;;;;;;;;;2.00;2.00;;;;;16.80;30.85;101501.28;5002886;28;45151;-58
2022/04/18 00:40:20;;;;;;;;;2.75;1.75;;;;;16.78;30.81;101503.22;5002970;28;45528;-58
2022/04/18 00:42:46;;;;;;;;;1.00;1.00;;;;;16.74;30.71;101498.09;5002848;28;45813;-59
2022/04/18 00:45:11;;;;;;;;;1.75;1.00;;;;;16.71;30.49;101493.03;5003128;28;45258;-58
2022/04/18 00:47:37;;;;;;;;;2.50;1.25;;;;;16.68;30.80;101490.56;5003068;28;45305;-58
2022/04/18 00:50:03;;;;;;;;;3.00;2.00;;;;;16.67;30.64;101486.22;5002865;28;45341;-58
2022/04/18 00:52:30;;;;;;;;;3.00;1.00;;;;;16.67;30.81;101482.69;5002491;28;47354;-58
2022/04/18 00:55:00;;;;;;;;;2.50;1.00;;;;;16.66;30.84;101476.50;5002704;28;45373;-58
2022/04/18 00:57:28;;;;;;;;;3.00;2.00;;;;;16.64;30.93;101478.44;5002704;28;45314;-58
2022/04/18 00:59:53;;;;;;;;;1.00;1.00;;;;;16.62;30.54;101485.69;5002441;28;45365;-58
2022/04/18 01:02:19;;;;;;;;;2.75;2.00;;;;;16.59;30.95;101485.91;5002548;28;45828;-59
2022/04/18 01:04:44;;;;;;;;;1.50;1.50;;;;;16.55;30.79;101480.91;5002472;28;45459;-58
2022/04/18 01:07:11;;;;;;;;;1.00;1.00;;;;;16.52;30.80;101486.47;5002560;28;45571;-58
2022/04/18 01:09:37;;;;;;;;;1.25;1.25;;;;;16.50;30.27;101483.06;5002424;28;45530;-58
2022/04/18 01:12:02;;;;;;;;;1.00;1.00;;;;;16.47;30.40;101484.97;5002297;28;45840;-58
2022/04/18 01:14:28;;;;;;;;;1.00;1.00;;;;;16.46;30.69;101482.44;5002429;28;45256;-58
2022/04/18 01:16:53;;;;;;;;;2.00;1.00;;;;;16.41;31.26;101474.78;5001324;28;45199;-59
2022/04/18 01:19:19;;;;;;;;;1.00;1.00;;;;;16.39;31.72;101474.03;5002488;28;45328;-58
2022/04/18 01:21:44;;;;;;;;;2.25;1.00;;;;;16.38;30.99;101476.81;5002329;28;46128;-59
2022/04/18 01:29:39;;;;;;;;;2.00;2.00;;;;;16.30;31.15;101466.75;5002339;28;45509;-59
2022/04/18 01:32:05;;;;;;;;;2.00;2.00;;;;;16.27;30.97;101469.59;5001737;28;46151;-58
2022/04/18 01:34:31;;;;;;;;;4.25;2.75;;;;;16.24;30.91;101471.63;5002196;28;45234;-58
2022/04/18 01:36:57;;;;;;;;;1.50;1.25;;;;;16.20;31.03;101460.38;5002113;28;45255;-58
2022/04/18 01:39:22;;;;;;;;;1.00;1.00;;;;;16.19;31.01;101463.97;5002050;28;45315;-59
2022/04/18 01:41:47;;;;;;;;;2.25;1.00;;;;;16.16;30.86;101465.06;5001971;28;45734;-58
2022/04/18 01:44:13;;;;;;;;;4.00;2.50;;;;;16.14;30.80;101464.31;5001969;28;45349;-61
2022/04/18 01:46:38;;;;;;;;;2.50;2.00;;;;;16.11;31.13;101459.19;5002080;28;45290;-58
2022/04/18 01:49:04;;;;;;;;;1.75;1.25;;;;;16.08;31.10;101455.94;5001954;28;45290;-58
2022/04/18 01:51:29;;;;;;;;;2.00;2.00;;;;;16.06;31.20;101460.50;5001842;28;45360;-58
2022/04/18 01:53:55;;;;;;;;;4.00;2.00;;;;;16.05;30.92;101457.00;5001451;28;45250;-58
2022/04/18 01:56:20;;;;;;;;;1.50;1.50;;;;;16.02;31.27;101457.19;5001814;28;45314;-59
2022/04/18 01:58:46;;;;;;;;;3.25;2.00;;;;;15.99;31.53;101452.13;5001629;28;45274;-58
2022/04/18 02:01:12;;;;;;;;;3.00;2.00;;;;;15.98;31.50;101446.91;5001459;28;46007;-58
2022/04/18 02:03:43;;;;;;;;;2.75;2.00;;;;;15.95;31.39;101445.31;5001515;28;45267;-58
2022/04/18 02:06:10;;;;;;;;;1.00;1.00;;;;;15.94;31.62;101448.06;5001755;28;45402;-58
2022/04/18 02:08:35;;;;;;;;;3.50;2.00;;;;;15.89;31.62;101448.41;5001259;28;45449;-58
2022/04/18 02:11:01;;;;;;;;;1.25;1.25;;;;;15.82;31.97;101445.34;5001495;28;45356;-59
2022/04/18 02:13:28;;;;;;;;;3.75;2.50;;;;;15.80;32.21;101452.56;5001332;28;45330;-58
2022/04/18 02:15:57;;;;;;;;;3.00;1.50;;;;;15.75;32.65;101440.56;5001444;28;45423;-59
2022/04/18 02:18:23;;;;;;;;;4.75;4.75;;;;;15.72;32.81;101448.72;5001386;28;45424;-58
2022/04/18 02:20:49;;;;;;;;;5.75;3.75;;;;;15.70;33.25;101443.53;4980720;28;46728;-58
2022/04/18 02:23:15;;;;;;;;;3.00;3.00;;;;;15.66;33.48;101439.41;5001302;28;45340;-59
2022/04/18 02:25:40;;;;;;;;;4.50;4.00;;;;;15.63;33.59;101444.91;5001320;28;45456;-59
2022/04/18 02:28:07;;;;;;;;;3.50;3.50;;;;;15.60;33.73;101447.75;5001099;28;45612;-59
2022/04/18 02:30:33;;;;;;;;;4.75;3.75;;;;;15.54;33.71;101441.03;5000766;28;46108;-59
2022/04/18 02:32:59;;;;;;;;;4.50;4.50;;;;;15.47;33.95;101441.56;5001293;28;45179;-59
2022/04/18 02:35:26;;;;;;;;;4.00;4.00;;;;;15.43;33.80;101438.28;5001173;28;45481;-58
2022/04/18 02:37:52;;;;;;;;;5.75;3.25;;;;;15.40;34.14;101440.28;5001265;28;45496;-58
2022/04/18 02:40:19;;;;;;;;;3.00;3.00;;;;;15.33;34.23;101431.91;5000899;28;46199;-58
2022/04/18 02:42:45;;;;;;;;;7.00;4.50;;;;;15.27;34.62;101427.88;5001175;28;45325;-58
2022/04/18 02:45:12;;;;;;;;;3.25;2.75;;;;;15.22;34.76;101427.31;5000821;28;45294;-59
2022/04/18 02:47:38;;;;;;;;;4.25;4.25;;;;;15.18;34.74;101422.34;5001181;28;45274;-59
2022/04/18 02:50:05;;;;;;;;;7.50;3.00;;;;;15.13;34.79;101422.63;5000973;28;46000;-58
2022/04/18 02:52:31;;;;;;;;;5.00;3.00;;;;;15.05;35.11;101430.25;5000785;28;45300;-58
2022/04/18 02:54:57;;;;;;;;;2.75;2.75;;;;;14.99;35.06;101428.84;5001116;28;45336;-59
2022/04/18 02:57:22;;;;;;;;;5.00;4.00;;;;;14.93;35.40;101431.06;5001029;28;45368;-58
2022/04/18 02:59:48;;;;;;;;;4.25;4.25;;;;;14.88;35.38;101425.22;5000583;28;46196;-58
2022/04/18 03:02:13;;;;;;;;;4.25;4.25;;;;;14.86;35.94;101429.78;5001145;28;45297;-58
2022/04/18 03:04:39;;;;;;;;;2.75;2.00;;;;;14.81;35.45;101422.13;5000993;28;45423;-58
2022/04/18 03:07:05;;;;;;;;;3.50;2.50;;;;;14.80;35.46;101431.03;5000755;28;45306;-58
2022/04/18 03:09:31;;;;;;;;;3.00;3.00;;;;;14.76;35.89;101425.06;5000852;28;45313;-58
2022/04/18 03:11:57;;;;;;;;;6.50;4.50;;;;;14.74;36.24;101426.97;5000644;28;45466;-59
2022/04/18 03:14:23;;;;;;;;;5.25;3.00;;;;;14.70;36.09;101430.81;5000639;28;45364;-58
2022/04/18 03:16:49;;;;;;;;;4.00;3.25;;;;;14.65;36.51;101429.41;5000707;28;45468;-58
2022/04/18 03:19:14;;;;;;;;;3.75;3.00;;;;;14.55;36.52;101423.84;4982785;28;45439;-59
2022/04/18 03:21:40;;;;;;;;;3.75;3.00;;;;;14.51;36.79;101422.31;5000579;28;45268;-59
2022/04/18 03:24:06;;;;;;;;;3.00;3.00;;;;;14.47;36.64;101424.34;5000454;28;45156;-58
2022/04/18 03:26:32;;;;;;;;;4.75;4.25;;;;;14.45;36.75;101422.69;5000779;28;45199;-58
2022/04/18 03:28:57;;;;;;;;;3.00;2.50;;;;;14.41;36.75;101419.41;5000457;28;45487;-58
2022/04/18 03:31:23;;;;;;;;;4.00;4.00;;;;;14.41;36.69;101421.19;5000260;28;45342;-58
2022/04/18 03:33:48;;;;;;;;;3.00;3.00;;;;;14.43;36.83;101424.59;5000634;28;45357;-58
2022/04/18 03:41:44;;;;;;;;;3.00;3.00;;;;;14.38;36.31;101426.72;4982873;28;45448;-58
2022/04/18 03:44:09;;;;;;;;;2.00;2.00;;;;;14.34;36.29;101423.38;5003666;28;45265;-59
2022/04/18 03:46:35;;;;;;;;;3.25;3.25;;;;;14.29;36.15;101422.81;5003981;28;45247;-58
2022/04/18 03:49:01;;;;;;;;;2.50;2.50;;;;;14.29;36.10;101414.03;5003369;28;46335;-59
2022/04/18 03:51:26;;;;;;;;;4.25;4.00;;;;;14.29;36.49;101419.31;5003786;28;45444;-59
2022/04/18 03:53:52;;;;;;;;;3.00;3.00;;;;;14.25;36.39;101419.53;5003309;28;45508;-58
2022/04/18 03:56:17;;;;;;;;;2.75;2.75;;;;;14.23;36.54;101415.28;5003892;28;45265;-58
2022/04/18 03:58:43;;;;;;;;;4.00;3.00;;;;;14.18;36.54;101412.91;4985492;28;45394;-58
2022/04/18 04:01:08;;;;;;;;;0.00;0.00;;;;;14.16;36.63;101417.47;5003414;28;45215;-59
2022/04/18 04:03:34;;;;;;;;;4.00;2.00;;;;;14.13;36.61;101411.50;5003504;28;45238;-58
2022/04/18 04:06:00;;;;;;;;;4.75;3.00;;;;;14.10;36.62;101415.19;5003561;28;45171;-58
2022/04/18 04:08:28;;;;;;;;;5.00;4.00;;;;;14.08;36.59;101413.59;5002944;28;46217;-58
2022/04/18 04:10:53;;;;;;;;;1.00;1.00;;;;;14.08;36.72;101413.59;5003174;28;45395;-59
2022/04/18 04:13:19;;;;;;;;;5.00;2.75;;;;;14.05;36.69;101405.84;5003225;28;45511;-58
2022/04/18 04:15:44;;;;;;;;;3.75;3.75;;;;;14.04;36.82;101402.34;5003355;28;45391;-59
2022/04/18 04:18:10;;;;;;;;;4.00;3.25;;;;;14.01;36.82;101404.34;5002818;28;45301;-58
2022/04/18 04:20:36;;;;;;;;;2.25;2.25;;;;;13.96;36.78;101401.97;5003409;28;45305;-58
2022/04/18 04:23:01;;;;;;;;;4.25;2.75;;;;;13.93;36.92;101397.72;5002961;28;45748;-58
2022/04/18 04:25:27;;;;;;;;;4.50;2.50;;;;;13.89;36.80;101398.84;5003431;28;45360;-58
2022/04/18 04:27:52;;;;;;;;;4.00;3.00;;;;;13.88;37.25;101405.09;5002830;28;46160;-58
2022/04/18 04:30:18;;;;;;;;;2.50;2.50;;;;;13.83;37.08;101406.34;5002889;28;45173;-58
2022/04/18 04:32:43;;;;;;;;;4.00;3.00;;;;;13.76;37.68;101400.56;5002958;28;45445;-59
2022/04/18 04:35:09;;;;;;;;;6.00;3.25;;;;;13.68;37.77;101405.50;5003406;28;45312;-58
2022/04/18 04:37:34;;;;;;;;;2.50;2.50;;;;;13.62;38.03;101417.31;5002681;28;45289;-58
2022/04/18 04:40:00;;;;;;;;;1.50;1.50;;;;;13.56;37.96;101415.03;5002951;28;45311;-58
2022/04/18 04:42:25;;;;;;;;;4.00;4.00;;;;;13.51;38.00;101417.13;5002968;28;45402;-58
2022/04/18 04:44:51;;;;;;;;;3.50;3.00;;;;;13.48;38.72;101417.28;5002792;28;46062;-58
2022/04/18 04:47:16;;;;;;;;;2.00;2.00;;;;;13.46;38.59;101419.19;5002648;28;45892;-58
2022/04/18 04:49:42;;;;;;;;;4.50;4.00;;;;;13.44;38.66;101414.94;5002797;28;45290;-58
2022/04/18 04:52:07;;;;;;;;;6.50;2.00;;;;;13.38;38.87;101410.84;5002551;28;45330;-58
2022/04/18 04:54:35;;;;;;;;;5.00;3.50;;;;;13.33;39.04;101407.63;5002912;28;45318;-58
2022/04/18 04:57:00;;;;;;;;;3.25;3.00;;;;;13.30;38.98;101405.16;5002455;28;45437;-58
2022/04/18 04:59:26;;;;;;;;;1.25;1.25;;;;;13.27;39.37;101408.88;5002510;28;45449;-58
2022/04/18 05:01:51;;;;;;;;;3.75;3.25;;;;;13.25;39.00;101413.38;5002428;28;45325;-58
2022/04/18 05:04:17;;;;;;;;;2.75;2.75;;;;;13.24;39.54;101413.47;5002847;28;45336;-58
2022/04/18 05:06:42;;;;;;;;;3.50;3.00;;;;;13.16;39.88;101413.88;5002007;28;45245;-58
2022/04/18 05:09:08;;;;;;;;;4.75;3.00;;;;;13.09;39.59;101417.84;5002497;28;45309;-58
2022/04/18 05:11:34;;;;;;;;;4.50;4.50;;;;;13.05;39.45;101414.53;5002404;28;45252;-58
2022/04/18 05:13:59;;;;;;;;;6.75;4.00;;;;;13.03;39.88;101423.47;5002861;28;45147;-58
2022/04/18 05:16:25;;;;;;;;;5.25;3.25;;;;;13.05;40.34;101419.81;5001983;28;45219;-58
2022/04/18 05:18:50;;;;;;;;;5.50;3.75;;;;;13.05;40.27;101414.53;5002184;28;45317;-58
2022/04/18 05:21:16;;;;;;;;;3.25;3.25;;;;;13.03;40.48;101423.47;5002454;28;45227;-58
2022/04/18 05:23:42;;;;;;;;;4.25;3.75;;;;;12.99;39.86;101420.19;5002285;28;45183;-58
2022/04/18 05:26:08;;;;;;;;;5.00;4.00;;;;;13.00;40.75;101426.31;5002057;28;45487;-58
2022/04/18 05:28:33;;;;;;;;;4.00;4.00;;;;;13.01;39.99;101426.22;5002137;28;45392;-58
2022/04/18 05:30:59;;;;;;;;;3.25;3.00;;;;;13.06;40.35;101432.09;5001910;28;45269;-58
2022/04/18 05:33:24;;;;;;;;;3.75;3.75;;;;;13.03;40.22;101429.66;5002437;28;45384;-58
2022/04/18 05:35:50;;;;;;;;;4.25;4.00;;;;;12.98;40.30;101431.69;5001816;28;45270;-58
2022/04/18 05:38:17;;;;;;;;;3.00;3.00;;;;;12.99;40.53;101433.41;5001856;28;45270;-58
2022/04/18 05:40:42;;;;;;;;;5.00;5.00;;;;;12.99;40.53;101438.69;5001943;28;45361;-58
2022/04/18 05:43:08;;;;;;;;;4.75;4.75;;;;;13.02;40.47;101433.22;5002336;28;45211;-58
2022/04/18 05:45:38;;;;;;;;;5.50;5.50;;;;;13.12;39.83;101441.47;5001555;28;46177;-58
2022/04/18 05:48:04;;;;;;;;;5.00;5.00;;;;;13.22;39.91;101447.09;5001909;28;45361;-58
2022/04/18 05:50:29;;;;;;;;;5.00;5.00;;;;;13.32;39.87;101441.16;5001886;28;45304;-58
2022/04/18 05:52:55;;;;;;;;;5.00;3.00;;;;;13.49;39.63;101442.81;5001758;28;45312;-58
2022/04/18 05:55:23;;;;;;;;;5.25;5.25;;;;;13.72;39.12;101449.34;5001499;28;45324;-58
2022/04/18 05:57:52;;;;;;;;;4.00;4.00;;;;;13.91;38.77;101452.59;5001826;28;45235;-58
2022/04/18 06:00:18;;;;;;;;;7.00;6.00;;;;;14.14;38.32;101450.28;5001429;28;45215;-58
2022/04/18 06:02:44;;;;;;;;;4.00;3.75;;;;;14.30;38.63;101453.69;5001188;28;45316;-58
2022/04/18 06:05:10;;;;;;;;;5.50;5.00;;;;;14.45;38.16;101457.16;5001315;28;45417;-59
2022/04/18 06:07:35;;;;;;;;;5.75;3.50;;;;;14.56;38.15;101467.97;5001374;28;45338;-59
2022/04/18 06:10:02;;;;;;;;;2.75;2.75;;;;;14.71;37.48;101466.13;5001531;28;45424;-59
2022/04/18 06:12:27;;;;;;;;;4.00;4.00;;;;;14.85;37.48;101458.13;5001764;28;45440;-59
2022/04/18 06:14:54;;;;;;;;;7.25;4.25;;;;;15.03;37.39;101453.41;5001173;28;45240;-59
2022/04/18 06:17:19;;;;;;;;;6.50;4.50;;;;;15.20;36.99;101458.44;5001223;28;45283;-59
2022/04/18 06:19:45;;;;;;;;;5.50;4.75;;;;;15.34;36.65;101470.78;5001594;28;45306;-59
2022/04/18 06:22:10;;;;;;;;;4.75;4.75;;;;;15.52;36.62;101468.66;5001335;28;45344;-59
2022/04/18 06:24:36;;;;;;;;;6.50;6.50;;;;;15.66;36.44;101468.59;5001045;28;46012;-59
2022/04/18 06:27:01;;;;;;;;;6.75;5.50;;;;;15.75;36.38;101461.81;5001492;28;45236;-59
2022/04/18 06:29:27;;;;;;;;;6.25;4.75;;;;;15.77;35.63;101458.06;5001287;28;45162;-59
2022/04/18 06:31:55;;;;;;;;;5.50;5.00;;;;;15.79;36.16;101456.16;5001106;28;45490;-59
2022/04/18 06:34:21;;;;;;;;;6.25;5.25;;;;;15.86;35.86;101462.75;5000988;28;45328;-59
2022/04/18 06:36:47;;;;;;;;;6.50;5.75;;;;;15.92;35.42;101453.50;5001042;28;45337;-59
2022/04/18 06:39:12;;;;;;;;;6.25;5.00;;;;;15.94;35.62;101462.22;5001086;28;45341;-59
2022/04/18 06:41:38;;;;;;;;;5.00;5.00;;;;;15.93;35.74;101462.31;5001294;28;45361;-59
2022/04/18 06:44:04;;;;;;;;;6.50;6.25;;;;;15.88;35.65;101460.00;5000791;28;46001;-59
2022/04/18 06:46:29;;;;;;;;;5.00;5.00;;;;;15.98;35.36;101454.88;5001048;28;45212;-59
2022/04/18 06:48:55;;;;;;;;;7.50;5.00;;;;;16.12;35.43;101454.78;5001059;28;45232;-59
2022/04/18 06:51:20;;;;;;;;;4.50;4.00;;;;;16.29;35.52;101450.91;5001369;28;45218;-59
2022/04/18 06:53:46;;;;;;;;;3.75;3.75;;;;;16.43;34.72;101453.38;5000578;28;46058;-59
2022/04/18 06:58:56;;;;;;;;;6.50;4.00;;;;;16.46;34.03;101450.53;5001162;28;45238;-59
2022/04/18 07:01:22;;;;;;;;;4.00;3.75;;;;;16.29;34.03;101457.06;5000879;28;45690;-59
2022/04/18 07:03:47;;;;;;;;;4.00;3.00;;;;;16.15;33.80;101455.38;5000657;28;46038;-59
2022/04/18 07:06:13;;;;;;;;;4.00;4.00;;;;;16.10;34.15;101454.84;5000767;28;45384;-59
2022/04/18 07:08:38;;;;;;;;;3.25;3.25;;;;;16.13;34.28;101449.34;5000944;28;45329;-59
2022/04/18 07:11:04;;;;;;;;;5.50;3.75;;;;;16.15;33.84;101457.19;5000731;28;45496;-59
2022/04/18 07:13:30;;;;;;;;;6.00;6.00;;;;;16.13;34.20;101451.16;5001174;28;45977;-59
2022/04/18 07:15:56;;;;;;;;;5.00;3.00;;;;;16.10;34.31;101452.19;5003955;28;45309;-59
2022/04/18 07:18:21;;;;;;;;;4.00;4.00;;;;;16.04;34.50;101460.63;5004238;28;45304;-59
2022/04/18 07:20:47;;;;;;;;;6.75;6.00;;;;;16.04;34.41;101457.13;5004257;28;45460;-59
2022/04/18 07:23:12;;;;;;;;;6.50;4.75;;;;;16.05;34.72;101459.66;5003740;28;46533;-59
2022/04/18 07:25:38;;;;;;;;;8.25;5.25;;;;;16.05;34.90;101457.00;5003800;28;45247;-59
2022/04/18 07:28:04;;;;;;;;;7.00;4.75;;;;;16.07;34.45;101451.56;5004320;28;45311;-59
2022/04/18 07:30:30;;;;;;;;;6.75;6.00;;;;;16.12;34.83;101455.63;5003905;28;45518;-59
2022/04/18 07:32:56;;;;;;;;;7.00;6.00;;;;;16.16;34.55;101448.25;5003715;28;45235;-59
2022/04/18 07:35:22;;;;;;;;;6.00;6.00;;;;;16.21;35.02;101453.25;5003906;28;45301;-59
2022/04/18 07:40:32;;;;;;;;;8.75;6.50;;;;;16.26;35.08;101454.59;5003953;28;45484;-59
2022/04/18 07:42:57;;;;;;;;;6.75;6.75;;;;;16.30;34.32;101457.91;5003584;28;45928;-59
2022/04/18 07:45:23;;;;;;;;;7.25;7.25;;;;;16.30;34.48;101458.75;5003420;28;45338;-59
2022/04/18 07:47:52;;;;;;;;;10.25;7.00;;;;;16.40;34.50;101459.78;5003933;28;45353;-59
2022/04/18 07:50:17;;;;;;;;;2.50;2.00;;;;;16.50;34.72;101461.78;5003779;28;45457;-58
2022/04/18 07:52:43;;;;;;;;;8.00;7.00;;;;;16.51;34.23;101460.81;5003490;28;45172;-59
2022/04/18 07:55:08;;;;;;;;;8.75;8.75;;;;;16.50;34.11;101459.13;5003743;28;45270;-59
2022/04/18 07:57:34;;;;;;;;;7.75;7.00;;;;;16.51;33.95;101453.72;5003946;28;45158;-59
2022/04/18 07:59:59;;;;;;;;;6.00;6.00;;;;;16.54;34.02;101461.47;5003623;28;46300;-59
2022/04/18 08:02:25;;;;;;;;;7.25;7.25;;;;;16.58;34.43;101464.72;5003600;28;45325;-59
2022/04/18 08:04:50;;;;;;;;;6.50;6.50;;;;;16.54;34.56;101466.78;5003400;28;45361;-59
2022/04/18 08:07:16;;;;;;;;;8.00;7.75;;;;;16.53;34.52;101461.56;5003439;28;45258;-59
2022/04/18 08:09:41;;;;;;;;;7.00;5.50;;;;;16.48;34.25;101464.56;5003542;28;45370;-59
2022/04/18 08:12:11;;;;;;;;;8.50;8.00;;;;;16.42;34.56;101463.19;5003406;28;46013;-59
2022/04/18 08:14:37;;;;;;;;;6.50;5.25;;;;;16.40;34.60;101466.91;5003241;28;45381;-59
2022/04/18 08:17:03;;;;;;;;;9.00;6.00;;;;;16.39;34.35;101463.41;5003308;28;45485;-59
2022/04/18 08:19:29;;;;;;;;;7.00;5.75;;;;;16.43;34.61;101461.38;5003388;28;45354;-59
2022/04/18 08:21:55;;;;;;;;;8.50;8.00;;;;;16.48;34.66;101459.22;5003074;28;45280;-59
2022/04/18 08:24:20;;;;;;;;;9.50;7.00;;;;;16.58;34.27;101462.06;5002458;28;45327;-59
2022/04/18 08:26:47;;;;;;;;;9.25;9.00;;;;;16.67;34.11;101456.09;5003522;28;45206;-59
2022/04/18 08:29:13;;;;;;;;;8.50;7.00;;;;;16.78;34.45;101458.84;5003271;28;45323;-59
2022/04/18 08:31:38;;;;;;;;;11.25;7.50;;;;;16.85;34.21;101454.75;5002767;28;46114;-59
2022/04/18 08:34:04;;;;;;;;;9.50;7.50;;;;;16.94;34.57;101453.22;5002958;28;45343;-59
2022/04/18 08:36:29;;;;;;;;;8.75;8.75;;;;;17.05;34.11;101449.75;5003101;28;45402;-59
2022/04/18 08:38:55;;;;;;;;;8.50;8.00;;;;;17.12;34.23;101456.31;5002890;28;45507;-59
2022/04/18 08:41:23;;;;;;;;;8.75;6.50;;;;;17.20;34.10;101446.78;5002866;28;45433;-59
2022/04/18 08:43:49;;;;;;;;;8.25;8.00;;;;;17.25;33.88;101449.97;5002866;28;45343;-59
2022/04/18 08:46:17;;;;;;;;;9.00;9.00;;;;;17.30;33.93;101446.97;5002807;28;45233;-59
2022/04/18 08:54:13;;;;;;;;;7.50;7.00;;;;;17.54;33.59;101446.88;5002753;28;45379;-59
2022/04/18 08:56:39;;;;;;;;;6.50;6.50;;;;;17.64;33.43;101444.34;5002547;28;45325;-59
2022/04/18 08:59:04;;;;;;;;;21.50;18.50;;;;;17.68;32.96;101451.97;5002697;28;45313;-59
2022/04/18 09:01:30;;;;;;;;;6.00;6.00;;;;;17.69;33.06;101452.81;5002377;28;46075;-59
2022/04/18 09:03:55;;;;;;;;;5.75;5.75;;;;;17.76;33.17;101449.59;5002558;28;45409;-59
2022/04/18 09:06:24;;;;;;;;;7.75;7.75;;;;;17.82;32.96;101450.94;5002496;28;45423;-59
2022/04/18 09:08:56;;;;;;;;;5.75;5.75;;;;;17.91;32.61;101458.19;5002407;28;45534;-59
2022/04/18 09:11:26;;;;;;;;;8.00;8.00;;;;;17.93;32.42;101455.41;5002074;28;46195;-59
2022/04/18 09:13:57;;;;;;;;;7.75;7.25;;;;;18.00;32.20;101456.63;5002485;28;45318;-59
2022/04/18 09:16:28;;;;;;;;;7.75;7.00;;;;;18.07;32.02;101448.03;5002015;28;45238;-59
2022/04/18 09:19:26;;;;;;;;;7.50;7.00;;;;;18.18;32.60;101446.34;5002350;28;45420;-59
2022/04/18 09:22:04;;;;;;;;;15.50;12.00;;;;;18.29;32.86;101444.50;4958295;28;46215;-59
2022/04/18 09:24:35;;;;;;;;;12.50;9.50;;;;;18.39;32.24;101449.94;5001949;28;45308;-59
2022/04/18 09:27:13;;;;;;;;;8.00;6.25;;;;;18.53;31.70;101443.47;5002326;28;45304;-59
2022/04/18 09:29:40;;;;;;;;;6.25;6.25;;;;;18.66;32.35;101442.38;5002208;28;45338;-59
2022/04/18 09:32:13;;;;;;;;;9.25;7.50;;;;;18.77;31.58;101446.84;5001754;28;45468;-59
2022/04/18 09:34:40;;;;;;;;;8.25;5.50;;;;;18.86;32.04;101442.56;5001849;28;45314;-59
2022/04/18 09:37:10;;;;;;;;;10.25;8.00;;;;;18.86;31.60;101439.88;5000836;28;45226;-59
2022/04/18 09:39:36;;;;;;;;;8.75;6.75;;;;;18.94;31.71;101426.75;5002069;28;45401;-59
2022/04/18 09:42:14;;;;;;;;;6.25;6.25;;;;;19.00;31.63;101428.06;5001995;28;46189;-59
2022/04/18 09:44:39;;;;;;;;;8.25;8.25;;;;;19.02;31.24;101432.28;5002019;28;45247;-59
2022/04/18 09:47:05;;;;;;;;;6.00;6.00;;;;;19.04;30.99;101426.81;5001759;28;45337;-59
2022/04/18 09:49:38;;;;;;;;;5.00;5.00;;;;;19.05;31.33;101431.22;5001751;28;45218;-59
2022/04/18 09:52:10;;;;;;;;;5.00;5.00;;;;;19.06;31.68;101430.22;5001280;28;45740;-59
2022/04/18 09:54:35;;;;;;;;;6.00;5.00;;;;;19.13;31.29;101432.25;5002111;28;45263;-59
2022/04/18 09:57:06;;;;;;;;;7.25;6.00;;;;;19.24;31.74;101429.50;5001700;28;45387;-59
2022/04/18 09:59:32;;;;;;;;;9.00;7.00;;;;;19.34;31.55;101429.56;5001548;28;45571;-59
2022/04/18 10:01:59;;;;;;;;;3.25;3.25;;;;;19.39;30.63;101424.69;5001254;28;45270;-58
2022/04/18 10:04:26;;;;;;;;;6.00;5.00;;;;;19.42;30.77;101420.91;5001599;28;45375;-59
2022/04/18 10:06:56;;;;;;;;;7.00;5.50;;;;;19.44;31.18;101419.81;5001446;28;45330;-59
2022/04/18 10:09:24;;;;;;;;;5.50;5.50;;;;;19.52;30.51;101421.81;5001647;28;45430;-59
2022/04/18 10:11:51;;;;;;;;;4.25;4.25;;;;;19.51;31.01;101418.31;5001150;28;45631;-59
2022/04/18 10:14:17;;;;;;;;;9.00;5.75;;;;;19.58;30.57;101418.63;5001546;28;45317;-59
2022/04/18 10:16:43;;;;;;;;;5.75;4.75;;;;;19.66;30.64;101409.94;5001217;28;45266;-58
2022/04/18 10:19:26;;;;;;;;;5.50;4.75;;;;;19.71;30.46;101411.25;5001659;28;45200;-59
2022/04/18 10:22:17;;;;;;;;;6.00;5.00;;;;;19.77;30.83;101412.56;5001245;28;46138;-59
2022/04/18 10:25:09;;;;;;;;;3.00;3.00;;;;;19.80;30.51;101410.44;5001243;28;45238;-59
2022/04/18 10:28:00;;;;;;;;;5.00;5.00;;;;;19.92;30.79;101413.03;5001347;28;45372;-59
2022/04/18 10:30:26;;;;;;;;;6.50;5.00;;;;;20.02;30.10;101412.09;5001138;28;45496;-59
2022/04/18 10:32:53;;;;;;;;;5.50;4.25;;;;;20.06;30.03;101402.81;4983413;28;45443;-59
2022/04/18 10:35:22;;;;;;;;;5.00;3.00;;;;;20.13;31.06;101412.94;5001345;28;45518;-59
2022/04/18 10:37:53;;;;;;;;;7.25;6.00;;;;;20.21;30.91;101402.41;5001024;28;45245;-59
2022/04/18 10:40:19;;;;;;;;;6.75;5.00;;;;;20.26;30.74;101403.69;5001341;28;45255;-59
2022/04/18 10:42:44;;;;;;;;;6.00;5.75;;;;;20.29;30.04;101403.41;5001013;28;45304;-59
2022/04/18 10:45:14;;;;;;;;;9.50;6.00;;;;;20.27;30.20;101402.72;5000722;28;45226;-59
2022/04/18 10:48:05;;;;;;;;;6.25;6.00;;;;;20.25;30.42;101393.97;5000740;28;45395;-59
2022/04/18 10:50:44;;;;;;;;;5.75;4.25;;;;;20.31;30.01;101401.47;5000790;28;45622;-59
2022/04/18 10:53:17;;;;;;;;;6.00;4.75;;;;;20.33;30.18;101391.47;5000574;28;45517;-59
2022/04/18 10:55:51;;;;;;;;;15.00;15.00;;;;;20.41;30.22;101388.09;5000653;28;45328;-59
2022/04/18 10:58:21;;;;;;;;;4.75;4.75;;;;;20.49;29.97;101390.13;5000764;28;45238;-59
2022/04/18 11:00:57;;;;;;;;;6.75;5.00;;;;;20.56;30.08;101386.75;5000535;28;45645;-59
2022/04/18 11:03:44;;;;;;;;;4.25;4.00;;;;;20.63;30.01;101387.03;5000550;28;45404;-59
2022/04/18 11:06:15;;;;;;;;;6.00;5.50;;;;;20.69;29.96;101383.78;5000862;28;45242;-59
2022/04/18 11:08:42;;;;;;;;;6.00;5.00;;;;;20.72;30.11;101380.00;5000428;28;45388;-59
2022/04/18 11:11:17;;;;;;;;;5.50;4.00;;;;;20.71;29.37;101383.66;5000721;28;45413;-59
2022/04/18 11:13:43;;;;;;;;;7.00;4.75;;;;;20.69;28.99;101377.56;5000456;28;45393;-59
2022/04/18 11:16:24;;;;;;;;;5.00;5.00;;;;;20.60;29.47;101376.59;5000405;28;45269;-59
2022/04/18 11:19:29;;;;;;;;;5.00;5.00;;;;;20.69;29.65;101378.41;5000835;28;45432;-59
2022/04/18 11:21:55;;;;;;;;;5.00;4.00;;;;;20.85;29.33;101377.84;4989953;28;45395;-59
2022/04/18 11:24:56;;;;;;;;;5.50;4.00;;;;;21.00;29.47;101367.53;5000412;28;45350;-59
2022/04/18 11:27:31;;;;;;;;;3.75;3.50;;;;;21.03;29.85;101372.63;4920651;28;45337;-59
2022/04/18 11:30:06;;;;;;;;;7.50;6.25;;;;;21.09;29.34;101369.38;4980544;28;45376;-59
2022/04/18 11:32:36;;;;;;;;;5.00;4.50;;;;;21.14;29.11;101364.44;5000506;28;45151;-59
2022/04/18 11:35:05;;;;;;;;;7.00;5.50;;;;;21.23;29.05;101370.75;5000445;28;45436;-58
2022/04/18 11:37:39;;;;;;;;;6.00;5.00;;;;;21.27;28.83;101367.69;5000220;28;45441;-58
2022/04/18 11:40:08;;;;;;;;;5.25;5.00;;;;;21.29;28.55;101364.84;5000442;28;45250;-58
2022/04/18 11:42:34;;;;;;;;;5.25;4.50;;;;;21.33;28.53;101363.56;5000347;28;45413;-58
2022/04/18 11:45:03;;;;;;;;;3.00;3.00;;;;;21.44;28.91;101364.25;5000062;28;45393;-58
2022/04/18 11:47:40;;;;;;;;;7.25;5.00;;;;;21.59;28.06;101353.06;5000136;28;45326;-58